createdAt,value
2023-01-07T00:03:22.964Z,7.82
2023-01-07T00:06:48.267Z,7.07
2023-01-07T00:10:13.697Z,6.65
2023-01-07T00:13:40.687Z,9.45
2023-01-07T00:17:05.684Z,5.68
2023-01-07T00:20:31.379Z,8.25
2023-01-07T00:23:57.421Z,6.50
2023-01-07T00:27:21.271Z,5.53
2023-01-07T00:30:46.383Z,8.82
2023-01-07T00:34:11.125Z,6.20
2023-01-07T00:37:50.726Z,8.93
2023-01-07T00:41:16.308Z,9.60
2023-01-07T00:44:40.126Z,6.20
2023-01-07T00:48:06.489Z,8.77
2023-01-07T00:51:31.679Z,8.07
2023-01-07T00:54:55.515Z,6.20
2023-01-07T00:58:23.742Z,14.27
2023-01-07T01:06:23.794Z,9.38
2023-01-07T01:09:47.727Z,18.98
2023-01-07T01:13:12.105Z,11.68
2023-01-07T01:16:35.907Z,14.70
2023-01-07T01:19:59.966Z,10.55
2023-01-07T01:23:28.881Z,11.27
2023-01-07T01:26:58.044Z,10.30
2023-01-07T01:30:21.965Z,11.85
2023-01-07T01:33:46.117Z,11.85
2023-01-07T01:37:14.002Z,12.10
2023-01-07T01:40:39.094Z,11.43
2023-01-07T01:44:04.080Z,11.63
2023-01-07T01:47:33.578Z,12.98
2023-01-07T01:50:57.460Z,13.27
2023-01-07T01:54:25.000Z,17.50
2023-01-07T01:57:55.196Z,15.73
2023-01-07T02:01:18.987Z,14.25
2023-01-07T02:04:43.291Z,13.77
2023-01-07T02:08:07.557Z,12.82
2023-01-07T02:11:38.699Z,11.15
2023-01-07T02:15:09.326Z,13.60
2023-01-07T02:18:40.633Z,14.05
2023-01-07T02:22:07.636Z,16.13
2023-01-07T02:25:41.941Z,13.60
2023-01-07T02:29:18.447Z,19.55
2023-01-07T02:33:00.744Z,17.98
2023-01-07T02:36:39.522Z,17.95
2023-01-07T02:40:08.798Z,16.13
2023-01-07T02:43:39.521Z,13.75
2023-01-07T02:47:08.262Z,15.07
2023-01-07T02:50:31.895Z,14.60
2023-01-07T02:53:56.883Z,14.63
2023-01-07T02:57:38.412Z,17.83
2023-01-07T03:01:11.375Z,21.65
2023-01-07T03:04:47.153Z,23.27
2023-01-07T03:08:17.228Z,17.13
2023-01-07T03:11:44.423Z,20.13
2023-01-07T03:15:16.140Z,22.50
2023-01-07T03:18:42.035Z,18.33
2023-01-07T03:22:07.300Z,18.05
2023-01-07T03:25:31.550Z,17.65
2023-01-07T03:28:57.535Z,17.88
2023-01-07T03:32:25.734Z,16.00
2023-01-07T03:35:51.007Z,19.88
2023-01-07T03:39:15.335Z,15.65
2023-01-07T03:42:41.250Z,17.17
2023-01-07T03:46:15.835Z,21.63
2023-01-07T03:49:40.015Z,17.70
2023-01-07T03:53:04.085Z,21.83
2023-01-07T03:56:31.131Z,15.55
2023-01-07T03:59:54.689Z,17.65
2023-01-07T04:03:19.648Z,20.08
2023-01-07T04:06:44.516Z,16.73
2023-01-07T04:10:08.763Z,18.27
2023-01-07T04:13:33.026Z,17.77
2023-01-07T04:16:57.057Z,22.85
2023-01-07T04:20:22.364Z,17.27
2023-01-07T04:23:46.605Z,21.20
2023-01-07T04:27:10.383Z,15.43
2023-01-07T04:30:34.175Z,17.30
2023-01-07T04:33:58.310Z,17.42
2023-01-07T04:37:23.689Z,17.20
2023-01-07T04:40:47.415Z,16.60
2023-01-07T04:44:10.992Z,16.83
2023-01-07T04:47:34.561Z,16.55
2023-01-07T04:50:58.247Z,17.15
2023-01-07T04:54:27.336Z,15.35
2023-01-07T04:57:51.317Z,16.60
2023-01-07T05:01:15.397Z,19.55
2023-01-07T05:04:40.635Z,14.40
2023-01-07T05:08:05.185Z,13.43
2023-01-07T05:11:31.012Z,16.20
2023-01-07T05:14:55.397Z,17.00
2023-01-07T05:18:22.202Z,19.17
2023-01-07T05:21:46.036Z,15.27
2023-01-07T05:25:10.293Z,17.40
2023-01-07T05:28:35.548Z,12.88
2023-01-07T05:31:59.395Z,15.02
2023-01-07T05:35:23.307Z,18.67
2023-01-07T05:38:48.644Z,14.70
2023-01-07T05:42:12.219Z,13.40
2023-01-07T05:45:39.336Z,14.45
2023-01-07T05:49:03.754Z,10.85
2023-01-07T05:52:27.509Z,12.18
2023-01-07T05:55:52.252Z,12.27
2023-01-07T05:59:15.962Z,12.23
2023-01-07T06:02:40.907Z,13.85
2023-01-07T06:06:07.142Z,13.95
2023-01-07T06:09:30.872Z,11.18
2023-01-07T06:12:55.255Z,11.30
2023-01-07T06:16:18.783Z,14.10
2023-01-07T06:19:43.759Z,13.57
2023-01-07T06:23:07.361Z,11.65
2023-01-07T06:26:30.958Z,13.48
2023-01-07T06:29:54.518Z,14.75
2023-01-07T06:33:18.390Z,11.52
2023-01-07T06:36:44.331Z,10.10
2023-01-07T06:40:08.631Z,10.57
2023-01-07T06:43:32.178Z,17.33
2023-01-07T06:46:56.236Z,10.80
2023-01-07T06:50:19.840Z,17.45
2023-01-07T06:53:47.060Z,10.70
2023-01-07T06:57:11.315Z,12.25
2023-01-07T07:00:35.679Z,10.20
2023-01-07T07:03:59.241Z,11.20
2023-01-07T07:07:22.992Z,10.20
2023-01-07T07:10:48.781Z,10.25
2023-01-07T07:14:22.792Z,10.20
2023-01-07T07:17:47.113Z,13.80
2023-01-07T07:21:10.728Z,9.90
2023-01-07T07:24:34.249Z,8.85
2023-01-07T07:27:59.155Z,8.15
2023-01-07T07:31:23.501Z,9.48
2023-01-07T07:34:47.054Z,10.52
2023-01-07T07:38:10.572Z,14.00
2023-01-07T07:41:34.136Z,8.13
2023-01-07T07:45:03.106Z,9.15
2023-01-07T07:48:26.692Z,7.78
2023-01-07T07:51:50.313Z,6.93
2023-01-07T07:55:20.412Z,6.78
2023-01-07T07:58:49.874Z,4.82
2023-01-07T08:02:15.823Z,4.80
2023-01-07T08:05:42.121Z,5.32
2023-01-07T08:09:05.764Z,5.18
2023-01-07T08:12:29.600Z,6.68
2023-01-07T08:15:53.537Z,5.60
2023-01-07T08:19:18.509Z,6.13
2023-01-07T08:22:42.124Z,6.80
2023-01-07T08:26:05.654Z,6.18
2023-01-07T08:29:29.328Z,6.28
2023-01-07T08:32:52.842Z,6.93
2023-01-07T08:36:23.037Z,6.03
2023-01-07T08:39:47.078Z,5.70
2023-01-07T08:43:10.635Z,7.35
2023-01-07T08:46:34.261Z,8.60
2023-01-07T08:49:57.859Z,8.23
2023-01-07T08:53:23.641Z,5.97
2023-01-07T08:56:48.500Z,8.63
2023-01-07T09:00:15.640Z,7.75
2023-01-07T09:03:39.953Z,7.45
2023-01-07T09:07:04.175Z,7.20
2023-01-07T09:10:35.240Z,12.43
2023-01-07T09:14:03.619Z,8.70
2023-01-07T09:17:30.813Z,6.70
2023-01-07T09:20:59.512Z,5.82
2023-01-07T09:24:23.558Z,6.07
2023-01-07T09:27:55.575Z,7.05
2023-01-07T09:31:24.166Z,4.78
2023-01-07T09:34:54.952Z,6.47
2023-01-07T09:38:18.952Z,4.68
2023-01-07T09:41:50.466Z,4.55
2023-01-07T09:45:19.601Z,5.78
2023-01-07T09:48:45.865Z,9.48
2023-01-07T09:52:12.994Z,10.95
2023-01-07T09:55:39.513Z,3.00
2023-01-07T09:59:23.535Z,7.00
2023-01-07T10:02:56.002Z,3.58
2023-01-07T10:06:38.408Z,3.65
2023-01-07T10:10:11.056Z,5.80
2023-01-07T10:13:46.598Z,5.20
2023-01-07T10:17:22.072Z,7.63
2023-01-07T10:20:51.046Z,7.25
2023-01-07T10:24:21.750Z,3.15
2023-01-07T10:27:51.750Z,5.57
2023-01-07T10:31:21.267Z,2.92
2023-01-07T10:34:50.595Z,4.53
2023-01-07T10:38:28.869Z,1.98
2023-01-07T10:42:20.099Z,1.67
2023-01-07T10:45:59.714Z,1.35
2023-01-07T10:49:29.560Z,6.90
2023-01-07T10:52:59.588Z,3.05
2023-01-07T10:56:32.122Z,1.08
2023-01-07T11:00:02.782Z,0.98
2023-01-07T11:03:26.769Z,1.20
2023-01-07T11:06:53.578Z,1.30
2023-01-07T11:10:19.367Z,2.03
2023-01-07T11:13:46.060Z,2.55
2023-01-07T11:17:12.182Z,0.98
2023-01-07T11:20:49.891Z,0.80
2023-01-07T11:24:30.371Z,1.08
2023-01-07T11:27:54.223Z,2.30
2023-01-07T11:31:20.170Z,1.85
2023-01-07T11:34:50.849Z,1.13
2023-01-07T11:38:27.817Z,2.63
2023-01-07T11:41:55.515Z,2.65
2023-01-07T11:45:20.545Z,5.93
2023-01-07T11:48:52.569Z,0.90
2023-01-07T11:52:19.778Z,1.95
2023-01-07T11:55:57.112Z,1.83
2023-01-07T11:59:29.129Z,1.33
2023-01-07T12:13:35.633Z,0.82
2023-01-07T12:17:10.817Z,2.58
2023-01-07T12:20:59.489Z,2.42
2023-01-07T12:24:42.498Z,1.30
2023-01-07T12:28:11.884Z,2.15
2023-01-07T12:31:43.035Z,1.50
2023-01-07T12:35:14.217Z,1.33
2023-01-07T12:38:42.842Z,0.95
2023-01-07T12:42:11.634Z,1.60
2023-01-07T12:45:38.572Z,4.13
2023-01-07T12:49:11.281Z,2.22
2023-01-07T12:52:40.436Z,1.83
2023-01-07T12:56:15.180Z,1.67
2023-01-07T12:59:46.631Z,7.32
2023-01-07T13:03:17.249Z,2.83
2023-01-07T13:06:45.114Z,1.17
2023-01-07T13:10:12.672Z,0.98
2023-01-07T13:13:39.498Z,2.13
2023-01-07T13:17:14.506Z,2.95
2023-01-07T13:20:45.616Z,5.20
2023-01-07T13:24:19.126Z,2.35
2023-01-07T13:27:52.060Z,6.50
2023-01-07T13:31:20.822Z,7.55
2023-01-07T13:34:54.298Z,3.33
2023-01-07T13:38:28.532Z,2.75
2023-01-07T13:42:09.294Z,1.77
2023-01-07T13:45:34.926Z,1.25
2023-01-07T13:48:59.282Z,3.67
2023-01-07T13:52:23.885Z,1.73
2023-01-07T13:55:48.359Z,7.30
2023-01-07T13:59:33.115Z,1.02
2023-01-07T14:02:57.343Z,4.70
2023-01-07T14:06:45.580Z,7.68
2023-01-07T14:10:19.292Z,2.25
2023-01-07T14:13:44.215Z,0.88
2023-01-07T14:17:15.298Z,1.90
2023-01-07T14:20:48.041Z,1.98
2023-01-07T14:24:33.742Z,1.95
2023-01-07T14:28:08.748Z,0.95
2023-01-07T14:31:35.365Z,3.05
2023-01-07T14:35:02.513Z,1.55
2023-01-07T14:38:46.978Z,1.42
2023-01-07T14:42:30.577Z,3.70
2023-01-07T14:45:57.755Z,1.52
2023-01-07T14:49:43.220Z,1.75
2023-01-07T14:53:32.874Z,1.88
2023-01-07T14:57:06.506Z,5.88
2023-01-07T15:00:51.930Z,2.13
2023-01-07T15:04:41.044Z,1.00
2023-01-07T15:08:25.493Z,6.05
2023-01-07T15:12:07.776Z,1.73
2023-01-07T15:15:54.861Z,0.93
2023-01-07T15:19:18.851Z,1.88
2023-01-07T15:22:53.530Z,2.50
2023-01-07T15:26:20.073Z,2.58
2023-01-07T15:29:48.591Z,1.00
2023-01-07T15:33:28.439Z,2.55
2023-01-07T15:36:53.124Z,4.20
2023-01-07T15:40:18.685Z,1.35
2023-01-07T15:43:46.028Z,3.65
2023-01-07T15:47:24.705Z,0.88
2023-01-07T15:50:49.760Z,0.80
2023-01-07T15:54:26.883Z,4.68
2023-01-07T15:57:50.556Z,3.15
2023-01-07T16:01:17.142Z,1.55
2023-01-07T16:04:43.002Z,1.25
2023-01-07T16:08:08.002Z,2.47
2023-01-07T16:11:34.461Z,2.25
2023-01-07T16:14:58.825Z,1.30
2023-01-07T16:18:22.528Z,4.00
2023-01-07T16:21:58.580Z,1.15
2023-01-07T16:25:32.644Z,1.25
2023-01-07T16:29:10.354Z,2.22
2023-01-07T16:32:49.829Z,1.05
2023-01-07T16:36:16.759Z,1.45
2023-01-07T16:39:42.219Z,0.98
2023-01-07T16:43:20.063Z,1.10
2023-01-07T16:46:58.611Z,1.75
2023-01-07T16:50:36.984Z,3.08
2023-01-07T16:54:22.753Z,2.53
2023-01-07T16:57:47.929Z,5.97
2023-01-07T17:01:13.282Z,1.33
2023-01-07T17:04:37.724Z,1.27
2023-01-07T17:08:05.467Z,0.80
2023-01-07T17:11:33.391Z,2.47
2023-01-07T17:14:57.478Z,0.70
2023-01-07T17:18:31.788Z,15.20
2023-01-07T17:21:56.884Z,5.05
2023-01-07T17:25:25.571Z,0.95
2023-01-07T17:28:52.908Z,6.03
2023-01-07T17:32:17.211Z,6.43
2023-01-07T17:35:47.415Z,1.17
2023-01-07T17:39:11.403Z,2.40
2023-01-07T17:42:53.200Z,5.43
2023-01-07T17:46:17.060Z,0.93
2023-01-07T17:49:42.258Z,2.08
2023-01-07T17:53:07.359Z,0.75
2023-01-07T17:56:32.036Z,6.25
2023-01-07T18:00:57.370Z,2.65
2023-01-07T18:04:29.125Z,3.50
2023-01-07T18:07:53.674Z,2.33
2023-01-07T18:11:37.611Z,3.42
2023-01-07T18:15:01.927Z,3.78
2023-01-07T18:18:28.477Z,3.80
2023-01-07T18:21:52.092Z,3.53
2023-01-07T18:25:17.653Z,3.78
2023-01-07T18:28:45.695Z,4.65
2023-01-07T18:36:44.201Z,3.17
2023-01-07T18:40:12.139Z,4.63
2023-01-07T18:43:36.940Z,3.20
2023-01-07T18:47:04.609Z,4.20
2023-01-07T18:50:28.319Z,3.92
2023-01-07T18:53:52.123Z,3.35
2023-01-07T18:57:16.275Z,1.70
2023-01-07T19:00:42.408Z,3.22
2023-01-07T19:04:07.873Z,2.47
2023-01-07T19:07:33.161Z,0.88
2023-01-07T19:11:01.457Z,1.63
2023-01-07T19:14:38.675Z,1.45
2023-01-07T19:18:02.795Z,1.92
2023-01-07T19:21:28.667Z,2.55
2023-01-07T19:24:56.704Z,2.63
2023-01-07T19:28:20.671Z,3.78
2023-01-07T19:31:46.094Z,7.97
2023-01-07T19:35:10.936Z,5.75
2023-01-07T19:38:39.010Z,2.95
2023-01-07T19:42:03.869Z,2.95
2023-01-07T19:45:27.744Z,2.03
2023-01-07T19:48:53.176Z,1.52
2023-01-07T19:52:20.579Z,5.20
2023-01-07T19:55:45.900Z,2.50
2023-01-07T19:59:10.799Z,2.15
2023-01-07T20:02:36.135Z,4.95
2023-01-07T20:06:06.065Z,2.28
2023-01-07T20:09:57.199Z,4.15
2023-01-07T20:13:21.593Z,2.95
2023-01-07T20:16:46.175Z,1.70
2023-01-07T20:20:10.787Z,1.38
2023-01-07T20:23:36.399Z,1.10
2023-01-07T20:27:01.124Z,2.95
2023-01-07T20:30:26.310Z,2.35
2023-01-07T20:33:50.438Z,2.60
2023-01-07T20:37:14.172Z,6.00
2023-01-07T20:40:39.762Z,2.08
2023-01-07T20:44:03.973Z,1.70
2023-01-07T20:47:39.987Z,2.38
2023-01-07T20:51:06.952Z,1.40
2023-01-07T20:54:30.939Z,4.05
2023-01-07T20:57:55.963Z,1.50
2023-01-07T21:01:22.596Z,1.73
2023-01-07T21:04:48.160Z,1.55
2023-01-07T21:08:12.571Z,1.00
2023-01-07T21:11:36.213Z,1.17
2023-01-07T21:15:00.112Z,1.27
2023-01-07T21:18:26.332Z,1.75
2023-01-07T21:21:51.489Z,1.95
2023-01-07T21:25:16.002Z,1.00
2023-01-07T21:28:39.916Z,1.67
2023-01-07T21:32:04.255Z,7.35
2023-01-07T21:35:28.035Z,1.67
2023-01-07T21:39:04.861Z,1.77
2023-01-07T21:42:28.547Z,1.98
2023-01-07T21:45:53.154Z,1.08
2023-01-07T21:49:18.899Z,1.23
2023-01-07T21:52:42.804Z,2.17
2023-01-07T21:56:39.907Z,4.68
2023-01-07T22:00:13.413Z,0.90
2023-01-07T22:04:27.550Z,4.55
2023-01-07T22:11:47.679Z,2.47
2023-01-07T22:16:36.296Z,1.70
2023-01-07T22:20:57.117Z,5.13
2023-01-07T22:25:52.034Z,1.38
2023-01-07T22:30:11.983Z,1.42
2023-01-07T22:46:31.454Z,2.63
2023-01-07T23:01:32.728Z,1.52
2023-01-07T23:05:09.424Z,1.10
2023-01-07T23:18:20.843Z,2.28
2023-01-07T23:22:59.613Z,5.90
2023-01-07T23:30:25.731Z,3.00
2023-01-07T23:34:12.118Z,1.30
2023-01-07T23:38:29.614Z,5.28
2023-01-07T23:43:33.312Z,1.90
2023-01-07T23:47:50.079Z,6.57
